Time;durP1;ratioP1;P1;durP2;ratioP2;P2;SDS_P1;SDS_P2;PMS_P1;PMS_P2;Temp;Humidity;BMP_temperature;BMP_pressure;BME280_temperature;BME280_humidity;BME280_pressure;Samples;Min_cycle;Max_cycle;Signal;HPM_P1;HPM_P2
2021/11/24 00:00:47;;;;;;;25.23;15.30;;;;;;;1.95;100.00;97173.06;5057736;28;20084;-55
2021/11/24 00:03:16;;;;;;;23.02;15.00;;;;;;;1.97;100.00;97184.25;5053724;28;20547;-54
2021/11/24 00:05:44;;;;;;;23.15;14.73;;;;;;;1.96;100.00;97176.50;5052535;28;20067;-56
2021/11/24 00:08:13;;;;;;;25.10;14.48;;;;;;;1.99;100.00;97178.97;5056332;28;20072;-57
2021/11/24 00:10:41;;;;;;;23.35;15.48;;;;;;;1.81;100.00;97172.88;5061388;28;20076;-56
2021/11/24 00:13:09;;;;;;;21.60;14.70;;;;;;;1.88;100.00;97169.91;5056915;28;20065;-54
2021/11/24 00:15:39;;;;;;;22.77;15.10;;;;;;;1.84;100.00;97167.53;5059253;28;20037;-55
2021/11/24 00:18:09;;;;;;;27.63;16.30;;;;;;;1.74;100.00;97167.13;5050913;28;20060;-54
2021/11/24 00:20:37;;;;;;;26.85;15.68;;;;;;;1.65;100.00;97164.97;5055862;28;20060;-57
2021/11/24 00:23:06;;;;;;;25.73;15.85;;;;;;;1.45;100.00;97170.28;5053209;28;20076;-55
2021/11/24 00:25:34;;;;;;;25.70;14.85;;;;;;;1.23;100.00;97163.44;5060064;28;20068;-56
2021/11/24 00:28:03;;;;;;;26.50;15.88;;;;;;;1.49;100.00;97162.25;5052071;28;20079;-56
2021/11/24 00:30:31;;;;;;;31.23;16.80;;;;;;;1.77;100.00;97164.41;5056225;28;20071;-53
2021/11/24 00:33:01;;;;;;;28.05;16.88;;;;;;;1.70;100.00;97157.81;5036894;28;20076;-55
2021/11/24 00:35:30;;;;;;;25.67;15.98;;;;;;;1.61;100.00;97158.22;5059852;28;20053;-57
2021/11/24 00:37:58;;;;;;;29.95;16.67;;;;;;;1.80;100.00;97158.22;5059387;28;20076;-56
2021/11/24 00:40:27;;;;;;;29.15;16.23;;;;;;;1.90;100.00;97162.06;5059562;28;20078;-53
2021/11/24 00:42:55;;;;;;;26.27;15.50;;;;;;;1.77;100.00;97154.00;5059063;28;20117;-54
2021/11/24 00:45:24;;;;;;;29.38;16.38;;;;;;;1.63;100.00;97148.63;5051130;28;20068;-52
2021/11/24 00:47:53;;;;;;;27.15;16.15;;;;;;;1.58;100.00;97146.25;5060627;28;20602;-55
2021/11/24 00:50:23;;;;;;;27.27;16.77;;;;;;;1.60;100.00;97143.56;5060372;28;20071;-58
2021/11/24 00:52:52;;;;;;;27.50;16.40;;;;;;;1.60;100.00;97149.59;5064860;28;20064;-58
2021/11/24 00:55:21;;;;;;;24.15;14.95;;;;;;;1.61;100.00;97142.63;5054357;28;20102;-57
2021/11/24 00:57:49;;;;;;;27.88;16.58;;;;;;;1.54;100.00;97141.25;5059353;28;20080;-58
2021/11/24 01:00:18;;;;;;;23.92;15.95;;;;;;;1.81;100.00;97136.47;5043069;28;20071;-54
2021/11/24 01:02:46;;;;;;;29.08;15.77;;;;;;;1.72;100.00;97134.31;5060171;28;20054;-56
2021/11/24 01:05:15;;;;;;;29.30;16.83;;;;;;;1.47;100.00;97139.84;5060866;28;20075;-52
2021/11/24 01:07:45;;;;;;;26.83;15.68;;;;;;;1.56;100.00;97142.84;5065684;28;20076;-56
2021/11/24 01:10:14;;;;;;;23.70;15.80;;;;;;;1.61;100.00;97138.28;5063614;28;20131;-53
2021/11/24 01:12:45;;;;;;;28.65;16.95;;;;;;;1.43;100.00;97139.16;5058805;28;20538;-53
2021/11/24 01:15:13;;;;;;;25.65;16.73;;;;;;;1.63;100.00;97138.22;5061641;28;20071;-53
2021/11/24 01:17:42;;;;;;;25.77;15.88;;;;;;;1.44;100.00;97135.63;5059497;28;20057;-54
2021/11/24 01:20:12;;;;;;;25.90;15.25;;;;;;;1.38;100.00;97133.34;5059215;28;20072;-59
2021/11/24 01:22:42;;;;;;;28.58;15.55;;;;;;;1.32;100.00;97141.41;5061754;28;20048;-54
2021/11/24 01:25:12;;;;;;;27.10;14.93;;;;;;;1.25;100.00;97132.22;5053810;28;20069;-56
2021/11/24 01:27:41;;;;;;;22.48;14.98;;;;;;;1.20;100.00;97135.00;5063438;28;20530;-56
2021/11/24 01:30:11;;;;;;;27.45;16.02;;;;;;;1.30;100.00;97135.44;5045056;28;20056;-55
2021/11/24 01:32:42;;;;;;;25.05;15.27;;;;;;;1.23;100.00;97128.84;5061293;28;20064;-58
2021/11/24 01:35:11;;;;;;;23.70;16.05;;;;;;;1.17;100.00;97136.00;5059588;28;20165;-54
2021/11/24 01:37:40;;;;;;;27.25;15.10;;;;;;;1.07;100.00;97136.50;5058502;28;20086;-56
2021/11/24 01:40:12;;;;;;;26.17;15.35;;;;;;;0.72;100.00;97128.50;5036245;28;20061;-57
2021/11/24 01:42:41;;;;;;;25.92;14.23;;;;;;;0.67;100.00;97120.94;5038080;28;20064;-58
2021/11/24 01:45:11;;;;;;;25.45;15.55;;;;;;;0.89;100.00;97120.81;5045613;28;20064;-56
2021/11/24 01:47:40;;;;;;;27.00;16.17;;;;;;;1.04;100.00;97115.88;5051884;28;20618;-57
2021/11/24 01:50:09;;;;;;;27.05;15.82;;;;;;;1.08;100.00;97105.25;5036298;28;20084;-60
2021/11/24 01:52:37;;;;;;;26.30;16.02;;;;;;;1.08;100.00;97104.41;5046207;28;20080;-57
2021/11/24 01:55:08;;;;;;;24.77;15.57;;;;;;;0.84;100.00;97106.38;5059265;28;20063;-54
2021/11/24 01:57:40;;;;;;;24.98;14.65;;;;;;;0.83;100.00;97096.91;5052205;28;20454;-55
2021/11/24 02:00:10;;;;;;;26.33;15.60;;;;;;;0.89;100.00;97097.44;5060619;28;20068;-56
2021/11/24 02:02:40;;;;;;;25.35;15.07;;;;;;;0.70;100.00;97092.25;5060308;28;20068;-57
2021/11/24 02:05:08;;;;;;;25.73;15.18;;;;;;;0.60;100.00;97087.53;5062309;28;20069;-58
2021/11/24 02:07:37;;;;;;;27.95;15.02;;;;;;;0.70;100.00;97078.44;5064487;28;20080;-58
2021/11/24 02:10:06;;;;;;;28.10;15.77;;;;;;;0.62;100.00;97076.19;5059975;28;20071;-59
2021/11/24 02:12:35;;;;;;;24.20;15.02;;;;;;;0.82;100.00;97072.69;5052735;28;20061;-53
2021/11/24 02:15:06;;;;;;;26.17;15.88;;;;;;;0.81;100.00;97073.59;5056586;28;20064;-56
2021/11/24 02:17:34;;;;;;;24.90;15.52;;;;;;;0.69;100.00;97074.16;5050848;28;20068;-59
2021/11/24 02:20:03;;;;;;;23.17;14.90;;;;;;;0.72;100.00;97061.03;5054328;28;20097;-56
2021/11/24 02:22:33;;;;;;;27.80;15.85;;;;;;;0.82;100.00;97062.28;5063630;28;20297;-57
2021/11/24 02:25:04;;;;;;;25.85;14.98;;;;;;;0.50;100.00;97068.94;5049045;28;20069;-57
2021/11/24 02:27:33;;;;;;;26.08;15.00;;;;;;;0.62;100.00;97059.75;5061396;28;20068;-55
2021/11/24 02:30:01;;;;;;;27.55;16.33;;;;;;;0.76;100.00;97059.13;5056218;28;20324;-53
2021/11/24 02:32:29;;;;;;;27.98;15.80;;;;;;;0.75;100.00;97060.06;5061098;28;20072;-57
2021/11/24 02:34:58;;;;;;;26.38;15.77;;;;;;;0.71;100.00;97054.16;5055552;28;20084;-58
2021/11/24 02:37:26;;;;;;;24.65;15.38;;;;;;;0.51;100.00;97049.88;5059139;28;20072;-54
2021/11/24 02:39:56;;;;;;;26.23;14.68;;;;;;;0.54;100.00;97041.94;5063005;28;20431;-57
2021/11/24 02:42:24;;;;;;;25.13;15.30;;;;;;;0.66;100.00;97041.41;5055860;28;20072;-54
2021/11/24 02:44:54;;;;;;;29.50;15.50;;;;;;;0.57;100.00;97041.81;5058774;28;20056;-58
2021/11/24 02:47:25;;;;;;;23.00;14.88;;;;;;;0.34;100.00;97036.78;5055477;28;21646;-57
2021/11/24 02:49:56;;;;;;;24.00;14.20;;;;;;;0.52;100.00;97029.94;5068355;28;20048;-55
2021/11/24 02:52:25;;;;;;;26.38;15.35;;;;;;;0.65;100.00;97026.75;5067337;28;20056;-51
2021/11/24 02:54:56;;;;;;;24.40;14.63;;;;;;;0.37;100.00;97024.53;5060166;28;20822;-54
2021/11/24 02:57:31;;;;;;;25.63;15.55;;;;;;;0.39;100.00;97014.94;5041040;28;20141;-55
2021/11/24 02:59:59;;;;;;;27.50;15.52;;;;;;;-0.27;100.00;97030.75;5058310;28;20075;-55
2021/11/24 03:02:27;;;;;;;25.45;15.32;;;;;;;-0.29;100.00;97027.38;5068197;28;20060;-55
2021/11/24 03:04:57;;;;;;;28.42;15.43;;;;;;;-0.41;100.00;97032.22;5062034;28;20550;-53
2021/11/24 03:07:25;;;;;;;26.65;15.55;;;;;;;0.04;100.00;97019.09;5052460;28;20474;-56
2021/11/24 03:09:53;;;;;;;26.45;15.10;;;;;;;0.26;100.00;97018.97;5052612;28;20088;-58
2021/11/24 03:12:23;;;;;;;26.08;14.82;;;;;;;0.42;100.00;97016.56;5059234;28;20065;-57
2021/11/24 03:14:52;;;;;;;23.48;14.43;;;;;;;0.43;100.00;97013.06;5054895;28;20075;-57
2021/11/24 03:17:20;;;;;;;22.80;14.23;;;;;;;0.43;100.00;97013.06;5058516;28;20080;-58
2021/11/24 03:19:49;;;;;;;25.63;15.10;;;;;;;0.08;100.00;97018.03;5057196;28;20088;-57
2021/11/24 03:22:22;;;;;;;25.20;15.45;;;;;;;0.30;100.00;97012.75;5059656;28;20106;-52
2021/11/24 03:24:55;;;;;;;23.60;14.93;;;;;;;0.21;100.00;97011.41;5057402;28;20068;-56
2021/11/24 03:27:28;;;;;;;25.10;14.85;;;;;;;0.24;100.00;97020.78;5060733;28;20068;-55
2021/11/24 03:29:58;;;;;;;26.83;14.98;;;;;;;0.29;100.00;97007.63;5052339;28;20458;-57
2021/11/24 03:32:27;;;;;;;24.02;14.95;;;;;;;0.27;100.00;97004.25;5056659;28;20064;-56
2021/11/24 03:34:55;;;;;;;23.50;14.05;;;;;;;0.00;100.00;97002.00;5056615;28;20075;-55
2021/11/24 03:37:24;;;;;;;26.17;15.07;;;;;;;-0.02;100.00;97003.78;5061619;28;20072;-58
2021/11/24 03:39:53;;;;;;;27.45;15.25;;;;;;;-0.62;100.00;97006.31;5057468;28;20075;-58
2021/11/24 03:42:21;;;;;;;23.42;14.10;;;;;;;-0.33;100.00;97007.69;5057195;28;20071;-55
2021/11/24 03:44:51;;;;;;;22.45;14.10;;;;;;;-0.47;100.00;97004.00;5065164;28;20051;-57
2021/11/24 03:47:19;;;;;;;22.05;13.68;;;;;;;-0.10;100.00;96993.75;5060210;28;20442;-56
2021/11/24 03:49:48;;;;;;;23.08;14.95;;;;;;;0.03;100.00;97001.00;5060995;28;20095;-53
2021/11/24 03:52:17;;;;;;;19.73;13.32;;;;;;;-0.11;100.00;96989.47;5060122;28;20585;-60
2021/11/24 03:54:46;;;;;;;21.95;14.23;;;;;;;-0.05;100.00;96986.63;5057395;28;20056;-54
2021/11/24 03:57:14;;;;;;;21.60;12.98;;;;;;;-0.33;100.00;96979.19;5055358;28;20076;-54
2021/11/24 03:59:43;;;;;;;16.25;11.60;;;;;;;0.20;100.00;96977.75;5058826;28;20048;-58
2021/11/24 04:02:13;;;;;;;17.83;11.95;;;;;;;0.18;100.00;96979.59;5052383;28;20057;-55
2021/11/24 04:04:42;;;;;;;16.52;12.07;;;;;;;0.03;100.00;96977.66;5061258;28;20053;-57
2021/11/24 04:07:11;;;;;;;16.88;12.07;;;;;;;-0.19;100.00;96986.38;5058691;28;20074;-52
2021/11/24 04:09:39;;;;;;;18.00;11.93;;;;;;;0.14;100.00;96978.06;5062761;28;20045;-52
2021/11/24 04:12:08;;;;;;;20.55;12.75;;;;;;;0.18;100.00;96964.03;5062135;28;20064;-56
2021/11/24 04:14:37;;;;;;;17.92;11.93;;;;;;;0.12;100.00;96967.72;5064684;28;20037;-59
2021/11/24 04:17:06;;;;;;;17.20;11.75;;;;;;;0.01;100.00;96971.72;5065684;28;20080;-56
2021/11/24 04:19:36;;;;;;;20.20;11.35;;;;;;;-0.38;100.00;96970.78;5071742;28;20076;-58
2021/11/24 04:22:06;;;;;;;16.65;12.18;;;;;;;-0.51;100.00;96979.97;5065516;28;20072;-57
2021/11/24 04:24:35;;;;;;;17.90;12.10;;;;;;;-0.84;100.00;96988.22;5068556;28;20060;-55
2021/11/24 04:27:04;;;;;;;16.20;11.73;;;;;;;-0.69;100.00;96989.31;5069296;28;20071;-58
2021/11/24 04:29:33;;;;;;;18.73;11.27;;;;;;;-0.14;100.00;96993.94;5068950;28;20060;-59
2021/11/24 04:32:01;;;;;;;17.98;12.68;;;;;;;0.47;100.00;96986.03;5070886;28;20072;-58
2021/11/24 04:34:30;;;;;;;17.50;11.95;;;;;;;0.47;100.00;96981.69;5066166;28;20242;-56
2021/11/24 04:37:00;;;;;;;21.13;13.65;;;;;;;0.51;100.00;96977.22;5066161;28;20502;-54
2021/11/24 04:39:28;;;;;;;28.80;14.45;;;;;;;0.25;100.00;96981.00;5065763;28;20072;-57
2021/11/24 04:41:57;;;;;;;22.83;14.15;;;;;;;0.10;100.00;96987.69;5061663;28;20083;-52
2021/11/24 04:44:25;;;;;;;26.27;15.00;;;;;;;0.53;100.00;96985.78;5062460;28;20596;-56
2021/11/24 04:46:53;;;;;;;28.13;15.77;;;;;;;0.77;100.00;96989.00;5058723;28;20083;-60
2021/11/24 04:49:22;;;;;;;29.00;15.60;;;;;;;0.75;100.00;96985.63;5053589;28;20064;-60
2021/11/24 04:51:50;;;;;;;28.85;16.27;;;;;;;0.54;100.00;96979.66;5051421;28;20593;-56
2021/11/24 04:54:20;;;;;;;30.05;16.42;;;;;;;0.70;100.00;96978.06;5057308;28;20456;-60
2021/11/24 04:56:49;;;;;;;31.60;16.92;;;;;;;1.02;100.00;96983.47;5059613;28;20071;-59
2021/11/24 04:59:17;;;;;;;27.08;15.35;;;;;;;0.66;100.00;96986.06;5059649;28;20095;-56
2021/11/24 05:01:46;;;;;;;34.38;17.23;;;;;;;0.58;100.00;96982.97;5058915;28;20077;-57
2021/11/24 05:04:14;;;;;;;30.48;16.58;;;;;;;0.77;100.00;96986.41;5052985;28;20080;-62
2021/11/24 05:06:43;;;;;;;36.30;17.95;;;;;;;1.01;100.00;96984.41;5051710;28;20069;-60
2021/11/24 05:09:11;;;;;;;39.83;19.20;;;;;;;0.91;100.00;96980.56;5058292;28;20612;-59
2021/11/24 05:11:41;;;;;;;30.73;17.02;;;;;;;0.96;100.00;96983.75;5048180;28;20067;-58
2021/11/24 05:14:15;;;;;;;31.38;16.63;;;;;;;0.86;100.00;96985.09;5048362;28;20085;-58
2021/11/24 05:16:46;;;;;;;30.30;16.55;;;;;;;0.61;100.00;96978.47;5052761;28;20088;-60
2021/11/24 05:19:20;;;;;;;31.70;16.75;;;;;;;1.02;100.00;96982.63;5051025;28;20072;-59
2021/11/24 05:21:51;;;;;;;30.77;15.63;;;;;;;1.18;100.00;96981.00;5058409;28;20096;-60
2021/11/24 05:24:19;;;;;;;;;;;;;;;0.93;100.00;96981.34;5056557;28;20068;-60
2021/11/24 05:26:50;;;;;;;37.58;18.15;;;;;;;1.38;100.00;96980.88;5053869;28;19967;-58
2021/11/24 05:29:19;;;;;;;37.55;18.13;;;;;;;1.46;100.00;96967.50;5061327;28;20065;-57
2021/11/24 05:31:47;;;;;;;40.88;20.20;;;;;;;1.22;100.00;96966.09;5055216;28;20095;-59
2021/11/24 05:34:16;;;;;;;42.35;19.95;;;;;;;1.42;100.00;96965.97;5051051;28;20631;-60
2021/11/24 05:36:44;;;;;;;41.55;19.23;;;;;;;1.42;100.00;96968.56;5051261;28;20490;-60
2021/11/24 05:39:12;;;;;;;50.22;20.10;;;;;;;1.60;100.00;96967.63;5060427;28;20545;-57
2021/11/24 05:41:41;;;;;;;51.42;20.20;;;;;;;1.62;100.00;96967.56;5054892;28;20678;-56
2021/11/24 05:44:19;;;;;;;52.67;20.77;;;;;;;1.35;100.00;96957.63;5051134;28;20081;-56
2021/11/24 05:46:50;;;;;;;47.95;19.00;;;;;;;0.88;100.00;96962.53;5056549;28;20091;-56
2021/11/24 05:49:19;;;;;;;50.08;19.67;;;;;;;0.76;100.00;96958.75;5053057;28;20068;-59
2021/11/24 05:51:48;;;;;;;42.30;19.35;;;;;;;0.76;100.00;96960.50;5054205;28;20060;-59
2021/11/24 05:54:16;;;;;;;39.30;18.42;;;;;;;0.59;100.00;96961.31;5057115;28;20068;-60
2021/11/24 05:56:45;;;;;;;40.95;19.30;;;;;;;0.40;100.00;96958.69;5053893;28;20520;-58
2021/11/24 05:59:16;;;;;;;45.38;16.42;;;;;;;0.41;100.00;96968.16;5049651;28;20092;-62
2021/11/24 06:01:45;;;;;;;33.17;16.48;;;;;;;0.67;100.00;96960.03;5062419;28;20100;-57
2021/11/24 06:04:14;;;;;;;46.63;19.00;;;;;;;0.91;100.00;96960.63;5036507;28;20406;-57
2021/11/24 06:06:44;;;;;;;44.55;18.30;;;;;;;0.65;100.00;96961.88;5047262;28;20559;-56
2021/11/24 06:09:12;;;;;;;30.33;16.03;;;;;;;0.39;100.00;96967.41;5055530;28;20354;-59
2021/11/24 06:11:41;;;;;;;44.20;19.05;;;;;;;0.28;100.00;96970.50;5050673;28;20061;-58
2021/11/24 06:14:10;;;;;;;30.63;15.95;;;;;;;0.25;100.00;96962.84;5056459;28;20085;-57
2021/11/24 06:16:39;;;;;;;33.75;16.52;;;;;;;0.82;100.00;96966.25;5058890;28;21020;-62
2021/11/24 06:19:08;;;;;;;28.38;14.57;;;;;;;0.36;100.00;96964.94;5053408;28;20076;-58
2021/11/24 06:21:36;;;;;;;23.40;12.40;;;;;;;0.15;100.00;96970.19;5063448;28;20585;-61
2021/11/24 06:24:05;;;;;;;41.58;14.18;;;;;;;-0.16;100.00;96981.06;5049801;28;20080;-56
2021/11/24 06:26:34;;;;;;;29.30;14.25;;;;;;;0.33;100.00;96978.06;5054086;28;20572;-59
2021/11/24 06:29:03;;;;;;;29.90;12.68;;;;;;;-0.22;100.00;96980.47;5060858;28;20080;-61
2021/11/24 06:31:31;;;;;;;45.33;16.00;;;;;;;-0.04;100.00;96988.28;5061772;28;20037;-59
2021/11/24 06:34:01;;;;;;;42.10;15.32;;;;;;;-0.26;100.00;96984.94;5062247;28;20083;-60
2021/11/24 06:36:49;;;;;;;43.93;14.47;;;;;;;0.10;100.00;96986.84;5046463;28;20045;-57
2021/11/24 06:39:17;;;;;;;29.48;15.10;;;;;;;0.35;100.00;96981.44;5060710;28;20080;-58
2021/11/24 06:41:46;;;;;;;30.95;15.73;;;;;;;0.67;100.00;96972.16;5052338;28;20064;-55
2021/11/24 06:44:14;;;;;;;49.05;16.80;;;;;;;0.15;100.00;96977.13;5062027;28;20076;-55
2021/11/24 06:46:43;;;;;;;35.80;13.82;;;;;;;0.55;100.00;96981.38;5062967;28;20084;-57
2021/11/24 06:49:14;;;;;;;36.38;17.08;;;;;;;0.48;100.00;96982.53;5058970;28;20064;-60
2021/11/24 06:51:42;;;;;;;38.63;16.65;;;;;;;0.51;100.00;96981.56;5057692;28;20597;-60
2021/11/24 06:54:11;;;;;;;31.60;13.07;;;;;;;0.21;100.00;96984.66;5046476;28;20084;-59
2021/11/24 06:56:44;;;;;;;25.38;14.70;;;;;;;0.65;100.00;96986.94;5058985;28;20569;-53
2021/11/24 06:59:13;;;;;;;25.33;13.90;;;;;;;0.37;100.00;96984.78;5051395;28;20099;-60
2021/11/24 07:01:41;;;;;;;35.72;16.02;;;;;;;0.44;100.00;96988.78;5067949;28;20080;-59
2021/11/24 07:04:10;;;;;;;32.20;15.98;;;;;;;0.33;100.00;96983.25;5062644;28;20083;-61
2021/11/24 07:06:41;;;;;;;28.02;14.38;;;;;;;0.34;100.00;96982.31;5046303;28;20076;-61
2021/11/24 07:09:11;;;;;;;;;;;;;;;0.18;100.00;96983.03;5060169;28;20083;-59
2021/11/24 07:11:40;;;;;;;20.83;12.02;;;;;;;0.41;100.00;96979.41;5052205;28;19960;-58
2021/11/24 07:14:09;;;;;;;34.28;13.75;;;;;;;0.02;100.00;96988.94;5056495;28;20079;-59
2021/11/24 07:16:38;;;;;;;33.35;15.43;;;;;;;0.38;100.00;96984.72;5058196;28;20072;-62
2021/11/24 07:19:07;;;;;;;32.15;14.00;;;;;;;0.21;100.00;96985.47;5063387;28;20076;-55
2021/11/24 07:21:36;;;;;;;28.70;14.05;;;;;;;0.32;100.00;96985.00;5062699;28;20672;-58
2021/11/24 07:24:06;;;;;;;28.45;14.10;;;;;;;0.22;100.00;96979.38;5050972;28;20092;-60
2021/11/24 07:26:34;;;;;;;26.38;14.80;;;;;;;0.30;100.00;96986.81;5050019;28;20076;-59
2021/11/24 07:29:03;;;;;;;35.08;11.95;;;;;;;0.08;100.00;96984.34;5059147;28;20092;-60
2021/11/24 07:31:32;;;;;;;24.45;11.85;;;;;;;0.27;100.00;96986.94;5052698;28;20384;-59
2021/11/24 07:34:00;;;;;;;26.02;14.45;;;;;;;0.22;100.00;96987.16;5056022;28;20060;-61
2021/11/24 07:36:29;;;;;;;25.70;11.65;;;;;;;0.33;100.00;96989.25;5055947;28;20464;-56
2021/11/24 07:38:57;;;;;;;27.05;14.55;;;;;;;0.47;100.00;96993.84;5062473;28;20068;-60
2021/11/24 07:41:27;;;;;;;30.55;14.88;;;;;;;0.12;100.00;96985.88;5059343;28;20476;-56
2021/11/24 07:43:55;;;;;;;28.50;14.02;;;;;;;0.20;100.00;96985.53;5060544;28;20076;-59
2021/11/24 07:46:24;;;;;;;28.85;15.20;;;;;;;0.45;100.00;96987.88;5051773;28;20091;-58
2021/11/24 07:48:58;;;;;;;25.13;14.10;;;;;;;0.34;100.00;96985.75;5052203;28;20083;-59
2021/11/24 07:51:27;;;;;;;25.50;14.00;;;;;;;0.45;100.00;96980.09;5056013;28;20068;-57
2021/11/24 07:53:56;;;;;;;28.05;14.75;;;;;;;0.64;100.00;96980.94;5055872;28;20072;-58
2021/11/24 07:56:25;;;;;;;26.45;14.52;;;;;;;0.63;100.00;96979.25;5060466;28;20436;-60
2021/11/24 07:58:55;;;;;;;28.63;15.20;;;;;;;0.70;100.00;96977.22;5058550;28;20493;-58
2021/11/24 08:01:23;;;;;;;27.55;14.55;;;;;;;1.15;100.00;96965.56;5061346;28;20069;-59
2021/11/24 08:03:52;;;;;;;29.38;14.80;;;;;;;1.03;100.00;96971.31;5048729;28;20566;-63
2021/11/24 08:06:21;;;;;;;32.60;16.00;;;;;;;1.06;100.00;96973.78;5061969;28;20490;-62
2021/11/24 08:08:49;;;;;;;31.60;14.70;;;;;;;1.05;100.00;96975.53;5055821;28;20496;-60
2021/11/24 08:11:17;;;;;;;28.80;14.15;;;;;;;0.92;100.00;96964.88;5057562;28;20582;-58
2021/11/24 08:13:47;;;;;;;31.65;14.90;;;;;;;1.23;100.00;96970.38;5059987;28;20076;-57
2021/11/24 08:16:17;;;;;;;29.10;14.50;;;;;;;1.06;100.00;96964.22;5067203;28;20710;-58
2021/11/24 08:18:45;;;;;;;27.30;14.80;;;;;;;1.10;100.00;96959.72;5065672;28;20522;-60
2021/11/24 08:21:14;;;;;;;29.33;15.30;;;;;;;1.32;100.00;96954.34;5055116;28;20080;-60
2021/11/24 08:23:42;;;;;;;32.22;15.30;;;;;;;1.26;100.00;96957.25;5055020;28;20531;-62
2021/11/24 08:26:11;;;;;;;27.98;14.70;;;;;;;1.98;100.00;96944.03;5061294;28;20080;-56
2021/11/24 08:28:39;;;;;;;31.10;15.02;;;;;;;1.47;100.00;96948.38;5057505;28;20088;-62
2021/11/24 08:31:08;;;;;;;36.08;15.55;;;;;;;1.61;100.00;96952.88;5057271;28;20064;-61
2021/11/24 08:33:38;;;;;;;31.98;14.00;;;;;;;1.13;100.00;96949.19;5055056;28;20065;-61
2021/11/24 08:36:06;;;;;;;33.10;15.45;;;;;;;1.43;100.00;96950.28;5062741;28;20102;-59
2021/11/24 08:38:35;;;;;;;29.25;15.32;;;;;;;1.81;100.00;96941.47;5055214;28;20072;-60
2021/11/24 08:41:03;;;;;;;25.90;14.98;;;;;;;1.65;100.00;96942.25;5058327;28;20608;-58
2021/11/24 08:43:32;;;;;;;33.10;15.30;;;;;;;1.78;100.00;96926.84;5059863;28;20209;-55
2021/11/24 08:46:00;;;;;;;30.85;15.52;;;;;;;2.01;100.00;96932.63;5049998;28;20081;-58
2021/11/24 08:48:29;;;;;;;28.40;14.93;;;;;;;1.97;100.00;96925.91;5058200;28;20079;-57
2021/11/24 08:50:59;;;;;;;32.08;14.50;;;;;;;2.00;100.00;96925.75;5061361;28;20079;-55
2021/11/24 08:53:30;;;;;;;31.20;16.27;;;;;;;1.67;100.00;96929.16;5054734;28;20064;-57
2021/11/24 08:55:58;;;;;;;28.98;14.52;;;;;;;2.10;100.00;96926.97;5056823;28;20518;-57
2021/11/24 08:58:26;;;;;;;33.63;16.45;;;;;;;2.33;100.00;96926.53;5039442;28;20084;-57
2021/11/24 09:00:55;;;;;;;32.15;15.88;;;;;;;2.22;100.00;96921.09;5055590;28;20446;-55
2021/11/24 09:03:24;;;;;;;32.28;15.70;;;;;;;1.98;100.00;96915.41;5064355;28;20075;-56
2021/11/24 09:05:52;;;;;;;32.03;16.58;;;;;;;2.55;100.00;96912.38;5051216;28;20064;-57
2021/11/24 09:08:22;;;;;;;33.47;15.98;;;;;;;2.40;100.00;96903.63;5047537;28;20084;-54
2021/11/24 09:10:50;;;;;;;30.23;15.47;;;;;;;2.11;100.00;96908.66;5058054;28;20084;-56
2021/11/24 09:13:18;;;;;;;32.30;15.70;;;;;;;2.19;100.00;96908.25;5058000;28;21057;-58
2021/11/24 09:15:47;;;;;;;32.70;16.77;;;;;;;2.25;100.00;96914.88;5056376;28;20063;-55
2021/11/24 09:18:16;;;;;;;35.00;16.33;;;;;;;2.19;100.00;96912.59;5065557;28;20087;-54
2021/11/24 09:20:44;;;;;;;33.45;17.23;;;;;;;2.02;100.00;96905.69;5052043;28;20093;-60
2021/11/24 09:23:16;;;;;;;33.53;17.08;;;;;;;2.37;100.00;96902.06;5058948;28;20092;-58
2021/11/24 09:25:53;;;;;;;37.55;18.98;;;;;;;2.69;100.00;96903.81;5051238;28;20168;-57
2021/11/24 09:28:29;;;;;;;36.88;18.65;;;;;;;2.45;100.00;96893.00;5047739;28;20069;-54
2021/11/24 09:30:57;;;;;;;34.03;17.75;;;;;;;2.38;100.00;96895.09;5061102;28;20068;-53
2021/11/24 09:33:26;;;;;;;43.35;20.88;;;;;;;2.16;100.00;96902.34;5058334;28;20416;-56
2021/11/24 09:35:55;;;;;;;39.53;18.92;;;;;;;2.28;100.00;96899.94;5059582;28;20091;-54
2021/11/24 09:38:24;;;;;;;41.13;19.83;;;;;;;1.90;100.00;96899.38;5056836;28;20080;-57
2021/11/24 09:40:56;;;;;;;26.77;14.65;;;;;;;1.93;100.00;96893.16;5061770;28;20592;-53
2021/11/24 09:43:25;;;;;;;26.95;14.13;;;;;;;1.94;100.00;96892.28;5059438;28;20064;-57
2021/11/24 09:45:54;;;;;;;28.20;15.23;;;;;;;1.93;100.00;96891.44;5066542;28;20068;-58
2021/11/24 09:48:23;;;;;;;30.88;18.05;;;;;;;2.50;100.00;96893.56;5053245;28;20084;-56
2021/11/24 09:50:51;;;;;;;25.35;14.68;;;;;;;2.35;100.00;96877.03;5059087;28;20079;-56
2021/11/24 09:53:20;;;;;;;31.45;17.85;;;;;;;2.21;100.00;96883.00;5053817;28;20080;-52
2021/11/24 09:55:50;;;;;;;28.60;15.43;;;;;;;1.86;100.00;96874.47;5055785;28;20095;-52
2021/11/24 09:58:23;;;;;;;27.27;14.48;;;;;;;2.37;100.00;96868.22;5048264;28;20073;-56
2021/11/24 10:00:52;;;;;;;30.38;17.73;;;;;;;2.21;100.00;96867.38;5049008;28;20483;-58
2021/11/24 10:03:20;;;;;;;28.55;16.85;;;;;;;2.33;100.00;96860.66;5053590;28;20065;-58
2021/11/24 10:05:49;;;;;;;28.35;16.90;;;;;;;2.52;100.00;96858.72;5059083;28;20079;-53
2021/11/24 10:08:37;;;;;;;34.35;16.17;;;;;;;2.98;100.00;96845.69;5063378;28;20072;-57
2021/11/24 10:11:06;;;;;;;28.77;15.48;;;;;;;2.97;100.00;96845.78;5050540;28;20083;-55
2021/11/24 10:13:36;;;;;;;24.60;14.15;;;;;;;2.77;100.00;96837.34;5054827;28;20092;-59
2021/11/24 10:16:05;;;;;;;23.40;14.02;;;;;;;2.57;100.00;96825.44;5052330;28;20087;-56
2021/11/24 10:18:35;;;;;;;24.60;13.23;;;;;;;2.92;100.00;96827.81;5064333;28;20064;-57
2021/11/24 10:21:06;;;;;;;24.05;14.38;;;;;;;3.08;100.00;96823.38;5057886;28;20823;-58
2021/11/24 10:23:37;;;;;;;24.90;15.63;;;;;;;2.56;100.00;96822.94;5050638;28;20053;-54
2021/11/24 10:26:22;;;;;;;;;;;;;;;2.81;100.00;96811.97;5052953;28;20096;-61
2021/11/24 10:29:07;;;;;;;22.77;12.88;;;;;;;2.81;100.00;96812.78;5050195;28;20343;-59
2021/11/24 10:31:40;;;;;;;24.02;13.38;;;;;;;2.77;100.00;96808.69;5058512;28;20097;-58
2021/11/24 10:34:15;;;;;;;23.80;13.77;;;;;;;2.50;100.00;96805.91;5051326;28;20753;-56
2021/11/24 10:37:00;;;;;;;23.27;13.68;;;;;;;2.78;100.00;96793.91;5048789;28;20076;-56
2021/11/24 10:39:30;;;;;;;24.55;14.48;;;;;;;3.42;100.00;96789.28;5052049;28;20534;-57
2021/11/24 10:42:07;;;;;;;28.00;15.77;;;;;;;3.16;100.00;96778.63;5049461;28;20531;-60
2021/11/24 10:44:38;;;;;;;24.30;14.88;;;;;;;3.19;100.00;96785.44;5045680;28;20044;-57
2021/11/24 10:47:08;;;;;;;26.05;14.77;;;;;;;3.21;100.00;96786.19;5053978;28;20081;-58
2021/11/24 10:49:42;;;;;;;25.42;14.82;;;;;;;3.36;100.00;96779.22;5048373;28;20088;-58
2021/11/24 10:52:13;;;;;;;33.00;15.48;;;;;;;3.25;100.00;96775.50;5053734;28;20071;-59
2021/11/24 10:54:42;;;;;;;27.77;16.05;;;;;;;3.39;100.00;96766.84;5050566;28;20527;-58
2021/11/24 10:57:12;;;;;;;25.15;15.27;;;;;;;3.61;100.00;96762.91;5047477;28;20060;-57
2021/11/24 10:59:43;;;;;;;28.80;15.55;;;;;;;3.58;100.00;96766.56;5056822;28;20064;-59
2021/11/24 11:02:26;;;;;;;32.35;17.50;;;;;;;3.29;100.00;96750.91;5050996;28;20081;-58
2021/11/24 11:05:00;;;;;;;37.00;17.23;;;;;;;3.03;100.00;96756.88;5065497;28;20048;-57
2021/11/24 11:07:30;;;;;;;30.45;16.10;;;;;;;2.99;100.00;96748.38;5052021;28;20075;-54
2021/11/24 11:10:04;;;;;;;31.83;15.20;;;;;;;2.80;100.00;96745.19;5059468;28;20083;-55
2021/11/24 11:12:33;;;;;;;28.45;13.73;;;;;;;3.22;100.00;96735.75;5059090;28;20699;-54
2021/11/24 11:15:14;;;;;;;31.58;16.38;;;;;;;3.05;100.00;96734.16;5051320;28;20068;-55
2021/11/24 11:18:11;;;;;;;38.05;18.65;;;;;;;2.99;100.00;96730.13;5051729;28;20041;-59
2021/11/24 11:20:47;;;;;;;32.20;16.80;;;;;;;3.41;100.00;96733.72;5046833;28;20060;-52
2021/11/24 11:23:18;;;;;;;34.58;18.35;;;;;;;3.27;100.00;96728.50;5051876;28;20084;-56
2021/11/24 11:25:49;;;;;;;31.77;16.88;;;;;;;3.28;100.00;96720.56;5047835;28;20079;-53
2021/11/24 11:28:17;;;;;;;30.70;17.88;;;;;;;3.24;100.00;96720.88;5055765;28;20072;-56